Time;durP1;ratioP1;P1;durP2;ratioP2;P2;SDS_P1;SDS_P2;PMS_P1;PMS_P2;Temp;Humidity;BMP_temperature;BMP_pressure;BME280_temperature;BME280_humidity;BME280_pressure;Samples;Min_cycle;Max_cycle;Signal;HPM_P1;HPM_P2
2023/01/17 00:01:13;;;;;;;6.60;1.13;;;3.10;99.90;;;;;;4907779;29;20078;-84
2023/01/17 00:12:04;;;;;;;10.30;1.58;;;3.20;99.90;;;;;;4923660;29;20657;-83
2023/01/17 00:14:29;;;;;;;3.63;0.70;;;3.20;99.90;;;;;;4925406;29;20055;-84
2023/01/17 00:16:55;;;;;;;2.38;0.75;;;3.20;99.90;;;;;;4924884;29;20056;-84
2023/01/17 01:35:20;;;;;;;4.63;1.15;;;3.00;99.90;;;;;;4970154;28;20054;-84
2023/01/17 01:37:46;;;;;;;4.60;1.17;;;3.00;99.90;;;;;;4945922;29;20051;-83
2023/01/17 01:40:14;;;;;;;4.22;1.52;;;3.00;99.90;;;;;;4913616;28;20048;-83
2023/01/17 01:42:52;;;;;;;12.77;1.25;;;3.00;99.90;;;;;;4944919;29;20043;-84
2023/01/17 01:45:27;;;;;;;6.25;1.15;;;3.00;99.90;;;;;;4942570;29;20120;-84
2023/01/17 01:48:04;;;;;;;2.97;0.90;;;3.00;99.90;;;;;;4912716;28;20559;-85
2023/01/17 01:50:32;;;;;;;6.15;1.20;;;2.90;99.90;;;;;;4927964;29;20086;-84
2023/01/17 01:53:04;;;;;;;0.82;0.60;;;2.90;99.90;;;;;;4910090;28;20055;-84
2023/01/17 01:55:38;;;;;;;7.05;0.93;;;2.90;99.90;;;;;;4926303;29;20127;-83
2023/01/17 01:58:13;;;;;;;0.95;0.40;;;2.80;99.90;;;;;;4932105;29;20173;-84
2023/01/17 02:00:40;;;;;;;2.30;0.63;;;2.80;99.90;;;;;;4909777;29;20047;-83
2023/01/17 02:03:28;;;;;;;6.27;0.67;;;2.80;99.90;;;;;;4927374;29;20047;-84
2023/01/17 02:05:56;;;;;;;4.15;0.82;;;2.80;99.90;;;;;;4927011;29;20050;-84
2023/01/17 02:08:24;;;;;;;1.83;1.10;;;2.70;99.90;;;;;;4926869;29;20071;-83
2023/01/17 02:10:55;;;;;;;3.97;1.87;;;2.70;99.90;;;;;;4925128;28;20055;-84
2023/01/17 02:13:21;;;;;;;2.17;0.70;;;2.70;99.90;;;;;;4909853;28;20051;-84
2023/01/17 02:15:49;;;;;;;2.47;1.20;;;2.60;99.90;;;;;;4941065;28;20401;-84
2023/01/17 02:18:22;;;;;;;4.80;1.57;;;2.50;99.90;;;;;;4943773;29;20048;-84
2023/01/17 02:21:14;;;;;;;4.60;1.33;;;2.50;99.90;;;;;;4926525;29;20043;-84
2023/01/17 02:23:48;;;;;;;6.10;2.07;;;2.50;99.90;;;;;;4944711;28;20086;-84
2023/01/17 02:26:43;;;;;;;4.90;2.53;;;2.50;99.90;;;;;;4944639;29;20108;-83
2023/01/17 02:29:36;;;;;;;1.97;0.90;;;2.60;99.90;;;;;;4923488;29;20555;-84
2023/01/17 02:32:13;;;;;;;2.83;1.10;;;2.60;99.90;;;;;;4927037;29;20414;-83
2023/01/17 02:34:51;;;;;;;3.57;1.47;;;2.60;99.90;;;;;;4921965;29;20051;-84
2023/01/17 02:37:24;;;;;;;9.50;2.77;;;2.70;99.90;;;;;;4926356;29;20123;-83
2023/01/17 02:39:59;;;;;;;1.75;1.63;;;2.60;99.90;;;;;;4926050;29;20079;-83
2023/01/17 02:42:33;;;;;;;3.33;1.15;;;2.70;99.90;;;;;;4919928;29;20077;-83
2023/01/17 02:45:00;;;;;;;3.80;2.03;;;2.70;99.90;;;;;;4934600;28;20052;-83
2023/01/17 02:47:30;;;;;;;1.67;1.10;;;2.70;99.90;;;;;;4943068;29;20047;-84
2023/01/17 02:50:04;;;;;;;2.30;1.38;;;2.70;99.90;;;;;;4944048;29;20494;-83
2023/01/17 02:52:43;;;;;;;11.73;1.27;;;2.70;99.90;;;;;;4944963;28;20093;-83
2023/01/17 02:55:09;;;;;;;4.70;1.55;;;2.70;99.90;;;;;;4926251;29;20047;-83
2023/01/17 02:57:51;;;;;;;3.60;0.90;;;2.70;99.90;;;;;;4925374;29;20056;-83
2023/01/17 03:00:22;;;;;;;4.68;2.20;;;2.70;99.90;;;;;;5053326;23;20066;-84
2023/01/17 03:02:59;;;;;;;3.72;1.08;;;2.70;99.90;;;;;;4917882;29;20059;-83
2023/01/17 03:05:56;;;;;;;3.03;1.83;;;2.70;99.90;;;;;;4925828;29;20505;-83
2023/01/17 03:08:22;;;;;;;15.52;2.25;;;2.70;99.90;;;;;;4929848;29;20098;-83
2023/01/17 03:10:48;;;;;;;5.45;2.03;;;2.70;99.90;;;;;;4924420;28;20604;-83
2023/01/17 03:13:13;;;;;;;5.90;1.02;;;2.70;99.90;;;;;;4925279;29;20259;-83
2023/01/17 03:15:40;;;;;;;2.15;1.33;;;2.70;99.90;;;;;;4974549;28;20477;-83
2023/01/17 03:18:11;;;;;;;6.10;1.95;;;2.70;99.90;;;;;;4944661;28;20050;-83
2023/01/17 03:20:37;;;;;;;3.10;1.27;;;2.70;99.90;;;;;;4908765;28;20047;-83
2023/01/17 03:23:02;;;;;;;4.00;1.13;;;2.70;99.90;;;;;;4944986;28;20031;-83
2023/01/17 03:25:28;;;;;;;7.17;1.50;;;2.80;99.90;;;;;;4943966;28;20523;-83
2023/01/17 03:27:54;;;;;;;1.93;1.40;;;2.80;99.90;;;;;;4932230;29;20046;-82
2023/01/17 03:30:21;;;;;;;0.95;0.75;;;2.80;99.90;;;;;;4939841;29;20413;-84
2023/01/17 03:32:47;;;;;;;2.70;1.33;;;2.70;99.90;;;;;;4944295;28;20057;-83
2023/01/17 03:35:13;;;;;;;1.20;1.10;;;2.60;99.90;;;;;;4944155;29;20051;-84
2023/01/17 03:37:38;;;;;;;3.23;0.63;;;2.60;99.90;;;;;;4912138;28;20051;-83
2023/01/17 03:40:05;;;;;;;3.60;1.67;;;2.60;99.90;;;;;;4944853;28;20043;-83
2023/01/17 03:42:30;;;;;;;2.63;0.70;;;2.50;99.90;;;;;;4942909;29;20051;-83
2023/01/17 03:44:56;;;;;;;0.30;0.30;;;2.50;99.90;;;;;;4939893;29;20429;-82
2023/01/17 03:47:24;;;;;;;1.23;0.70;;;2.50;99.90;;;;;;4927274;29;20043;-83
2023/01/17 03:49:50;;;;;;;1.30;0.80;;;2.40;99.90;;;;;;4939268;29;20040;-83
2023/01/17 03:52:16;;;;;;;4.53;0.93;;;2.40;99.90;;;;;;4925032;29;20586;-82
2023/01/17 03:54:42;;;;;;;0.87;0.50;;;2.30;99.90;;;;;;4974669;28;20040;-82
2023/01/17 03:57:08;;;;;;;7.80;2.97;;;2.30;99.90;;;;;;4942695;28;20039;-83
2023/01/17 03:59:34;;;;;;;3.17;1.63;;;2.30;99.90;;;;;;4944163;28;20133;-82
2023/01/17 04:02:00;;;;;;;1.53;0.70;;;2.30;99.90;;;;;;4943454;29;20090;-82
2023/01/17 04:04:25;;;;;;;2.43;0.60;;;2.30;99.90;;;;;;4943902;29;20051;-82
2023/01/17 04:06:51;;;;;;;1.83;0.70;;;2.30;99.90;;;;;;4943318;28;20181;-82
2023/01/17 04:09:17;;;;;;;0.20;0.20;;;2.30;99.90;;;;;;4944116;29;20047;-83
2023/01/17 04:11:42;;;;;;;1.03;0.60;;;2.20;99.90;;;;;;4942067;28;20058;-83
2023/01/17 04:14:08;;;;;;;1.13;0.60;;;2.20;99.90;;;;;;4933930;28;20101;-83
2023/01/17 04:16:35;;;;;;;1.23;1.13;;;2.10;99.90;;;;;;4924932;28;20075;-83
2023/01/17 04:19:01;;;;;;;4.47;0.97;;;2.10;99.90;;;;;;4924670;29;20051;-83
2023/01/17 04:21:26;;;;;;;1.10;0.60;;;2.10;99.90;;;;;;4924157;28;20040;-83
2023/01/17 04:23:52;;;;;;;1.77;0.70;;;2.00;99.90;;;;;;4968430;28;20330;-83
2023/01/17 04:26:18;;;;;;;5.10;1.20;;;2.00;99.90;;;;;;4942019;28;20409;-83
2023/01/17 04:28:44;;;;;;;4.23;1.63;;;2.10;99.90;;;;;;4924407;29;20053;-83
2023/01/17 04:31:15;;;;;;;7.00;1.60;;;2.00;99.90;;;;;;4924633;29;20046;-83
2023/01/17 04:33:41;;;;;;;1.37;0.80;;;2.00;99.90;;;;;;4923564;28;20052;-83
2023/01/17 04:36:06;;;;;;;3.50;1.00;;;2.00;99.90;;;;;;4935861;29;20042;-83
2023/01/17 04:38:33;;;;;;;1.80;0.80;;;2.00;99.90;;;;;;4943562;29;20120;-83
2023/01/17 04:40:59;;;;;;;1.97;1.03;;;1.90;99.90;;;;;;4925264;29;20054;-83
2023/01/17 04:43:25;;;;;;;1.10;0.73;;;2.00;99.90;;;;;;4928744;29;20051;-83
2023/01/17 04:45:55;;;;;;;1.00;1.00;;;1.90;99.90;;;;;;4924657;28;20043;-82
2023/01/17 04:48:20;;;;;;;5.33;1.37;;;1.90;99.90;;;;;;4958219;28;20064;-82
2023/01/17 04:50:46;;;;;;;3.57;1.40;;;1.80;99.90;;;;;;4935360;28;20493;-83
2023/01/17 04:53:12;;;;;;;9.37;1.50;;;1.80;99.90;;;;;;4978676;28;20051;-82
2023/01/17 04:55:37;;;;;;;1.83;1.03;;;1.80;99.90;;;;;;4944353;28;20043;-83
2023/01/17 04:58:04;;;;;;;3.00;0.83;;;1.80;99.90;;;;;;4946647;28;20071;-83
2023/01/17 05:00:29;;;;;;;6.07;1.67;;;1.80;99.90;;;;;;4946935;28;20093;-82
2023/01/17 05:02:55;;;;;;;0.73;0.37;;;1.80;99.90;;;;;;4928417;29;20047;-83
2023/01/17 05:05:21;;;;;;;1.13;1.13;;;1.80;99.90;;;;;;4944526;28;20047;-83
2023/01/17 05:07:56;;;;;;;0.40;0.40;;;1.80;99.90;;;;;;4945280;28;20054;-82
2023/01/17 05:10:22;;;;;;;0.57;0.47;;;1.70;99.90;;;;;;4943051;28;20400;-82
2023/01/17 05:12:55;;;;;;;0.93;0.77;;;1.70;99.90;;;;;;4926383;29;20048;-83
2023/01/17 05:15:21;;;;;;;1.80;0.47;;;1.70;99.90;;;;;;4926969;29;20052;-82
2023/01/17 05:17:47;;;;;;;3.50;1.40;;;1.70;99.90;;;;;;4908700;29;20042;-82
2023/01/17 05:20:12;;;;;;;18.50;1.03;;;1.70;99.90;;;;;;4926323;29;20123;-82
2023/01/17 05:22:38;;;;;;;2.13;0.60;;;1.70;99.90;;;;;;4926230;28;20071;-83
2023/01/17 05:25:04;;;;;;;0.57;0.57;;;1.70;99.90;;;;;;4926394;28;20051;-82
2023/01/17 05:27:29;;;;;;;0.37;0.37;;;1.70;99.90;;;;;;4934068;28;20405;-82
2023/01/17 05:29:55;;;;;;;0.53;0.40;;;1.60;99.90;;;;;;4944195;29;20088;-82
2023/01/17 05:32:20;;;;;;;0.67;0.50;;;1.70;99.90;;;;;;4944967;29;20051;-82
2023/01/17 05:34:46;;;;;;;0.97;0.50;;;1.70;99.90;;;;;;4945198;28;20064;-82
2023/01/17 05:37:12;;;;;;;2.80;0.80;;;1.70;99.90;;;;;;4945443;28;20497;-83
2023/01/17 05:39:37;;;;;;;2.13;1.57;;;1.70;99.90;;;;;;4944026;29;20039;-83
2023/01/17 05:42:03;;;;;;;0.63;0.50;;;1.70;99.90;;;;;;4929325;29;20127;-82
2023/01/17 05:44:29;;;;;;;2.43;0.50;;;1.70;99.90;;;;;;4971364;28;20040;-82
2023/01/17 05:46:55;;;;;;;0.90;0.57;;;1.70;99.90;;;;;;4926750;28;20040;-83
2023/01/17 05:49:20;;;;;;;1.33;1.10;;;1.70;99.90;;;;;;4925488;29;20040;-82
2023/01/17 05:51:46;;;;;;;1.07;1.07;;;1.70;99.90;;;;;;4928422;28;20134;-80
2023/01/17 05:54:11;;;;;;;1.77;0.57;;;1.70;99.90;;;;;;4945445;29;20432;-81
2023/01/17 05:56:37;;;;;;;1.23;0.50;;;1.70;99.90;;;;;;4943992;29;20052;-81
2023/01/17 05:59:02;;;;;;;0.63;0.50;;;1.70;99.90;;;;;;4924253;29;20082;-79
2023/01/17 06:01:28;;;;;;;0.77;0.63;;;1.70;99.90;;;;;;4924274;29;20058;-80
2023/01/17 06:03:54;;;;;;;6.50;1.17;;;1.70;99.90;;;;;;4908559;28;20187;-80
2023/01/17 06:06:20;;;;;;;3.40;1.60;;;1.70;99.90;;;;;;4925545;29;20125;-80
2023/01/17 06:08:46;;;;;;;0.67;0.50;;;1.60;99.90;;;;;;4922190;28;20094;-80
2023/01/17 06:11:11;;;;;;;2.53;0.70;;;1.60;99.90;;;;;;4904846;28;20502;-79
2023/01/17 06:13:37;;;;;;;0.87;0.87;;;1.60;99.90;;;;;;4922159;28;20044;-80
2023/01/17 06:16:03;;;;;;;0.87;0.50;;;1.60;99.90;;;;;;4924383;29;20241;-82
2023/01/17 06:18:29;;;;;;;6.20;1.33;;;1.60;99.90;;;;;;4924541;29;20093;-82
2023/01/17 06:20:55;;;;;;;1.20;0.70;;;1.60;99.90;;;;;;4924018;28;20047;-80
2023/01/17 06:23:22;;;;;;;1.17;0.87;;;1.60;99.90;;;;;;4908547;28;20194;-80
2023/01/17 06:25:48;;;;;;;2.97;1.10;;;1.60;99.90;;;;;;4923594;29;20414;-80
2023/01/17 06:28:16;;;;;;;0.40;0.40;;;1.60;99.90;;;;;;4924775;29;20052;-80
2023/01/17 06:30:42;;;;;;;3.57;1.00;;;1.60;99.90;;;;;;4904806;28;20052;-80
2023/01/17 06:33:08;;;;;;;1.03;0.63;;;1.50;99.90;;;;;;4925363;28;20410;-82
2023/01/17 06:35:36;;;;;;;4.13;1.67;;;1.50;99.90;;;;;;4937058;28;20883;-82
2023/01/17 06:38:02;;;;;;;2.67;1.13;;;1.50;99.90;;;;;;4925069;28;20574;-81
2023/01/17 06:40:29;;;;;;;2.23;0.57;;;1.50;99.90;;;;;;4921596;28;20047;-80
2023/01/17 06:43:16;;;;;;;1.57;1.00;;;1.50;99.90;;;;;;4905842;28;20039;-83
2023/01/17 06:45:42;;;;;;;1.60;0.50;;;1.50;99.90;;;;;;4919426;29;20059;-81
2023/01/17 06:48:07;;;;;;;1.10;1.00;;;1.50;99.90;;;;;;4904650;29;20393;-81
2023/01/17 06:50:33;;;;;;;0.43;0.40;;;1.50;99.90;;;;;;4922951;29;20036;-81
2023/01/17 06:53:02;;;;;;;2.63;0.90;;;1.50;99.90;;;;;;4924031;28;20461;-81
2023/01/17 06:55:29;;;;;;;2.33;0.90;;;1.50;99.90;;;;;;4903798;28;20371;-80
2023/01/17 06:57:58;;;;;;;1.07;0.50;;;1.50;99.90;;;;;;4923525;29;20048;-80
2023/01/17 07:00:24;;;;;;;1.83;0.70;;;1.50;99.90;;;;;;4924116;29;20836;-81
2023/01/17 07:02:51;;;;;;;19.77;0.90;;;1.50;99.90;;;;;;4926823;29;20040;-81
2023/01/17 07:05:20;;;;;;;1.00;0.50;;;1.50;99.90;;;;;;4927576;28;20406;-81
2023/01/17 07:07:46;;;;;;;2.03;0.93;;;1.50;99.90;;;;;;4911561;28;20042;-80
2023/01/17 07:10:13;;;;;;;8.20;2.03;;;1.50;99.90;;;;;;4904831;29;20055;-80
2023/01/17 07:12:39;;;;;;;1.03;0.80;;;1.50;99.90;;;;;;4923573;29;20486;-83
2023/01/17 07:15:06;;;;;;;1.70;1.03;;;1.50;99.90;;;;;;4920339;28;20060;-82
2023/01/17 07:17:33;;;;;;;1.83;0.70;;;1.50;99.90;;;;;;4921833;29;20123;-83
2023/01/17 07:19:59;;;;;;;0.90;0.67;;;1.50;99.90;;;;;;4924364;29;20118;-83
2023/01/17 07:22:24;;;;;;;3.30;1.17;;;1.50;99.90;;;;;;4926240;29;20553;-83
2023/01/17 07:24:52;;;;;;;10.43;0.90;;;1.50;99.90;;;;;;4941639;29;20453;-83
2023/01/17 07:27:17;;;;;;;1.33;0.60;;;1.60;99.90;;;;;;4935340;28;20047;-83
2023/01/17 07:29:43;;;;;;;1.80;1.13;;;1.60;99.90;;;;;;4919408;29;20245;-83
2023/01/17 07:32:09;;;;;;;1.27;0.83;;;1.60;99.90;;;;;;4923838;28;20047;-83
2023/01/17 07:34:35;;;;;;;2.83;2.53;;;1.50;99.90;;;;;;4943470;28;20043;-82
2023/01/17 07:37:01;;;;;;;17.10;4.43;;;1.50;99.90;;;;;;4905434;28;20051;-83
2023/01/17 07:39:27;;;;;;;8.07;1.33;;;1.60;99.90;;;;;;4936391;28;20107;-83
2023/01/17 07:41:55;;;;;;;2.10;0.67;;;1.50;99.90;;;;;;4966314;28;20193;-83
2023/01/17 07:44:21;;;;;;;4.20;1.10;;;1.50;99.90;;;;;;4939253;28;20075;-81
2023/01/17 07:46:47;;;;;;;3.90;0.80;;;1.50;99.90;;;;;;4941931;29;20086;-84
2023/01/17 07:49:13;;;;;;;2.33;1.00;;;1.50;99.90;;;;;;4981080;28;20132;-83
2023/01/17 07:51:39;;;;;;;2.50;1.20;;;1.50;99.90;;;;;;4919108;29;20056;-82
2023/01/17 07:54:04;;;;;;;5.03;1.33;;;1.40;99.90;;;;;;4970494;28;20037;-83
2023/01/17 07:56:34;;;;;;;4.37;1.13;;;1.50;99.90;;;;;;5022265;28;20052;-84
2023/01/17 07:59:00;;;;;;;3.07;0.80;;;1.50;99.90;;;;;;4942406;28;20331;-83
2023/01/17 08:01:26;;;;;;;1.90;1.13;;;1.50;99.90;;;;;;4924197;29;20383;-83
2023/01/17 08:03:54;;;;;;;4.67;2.50;;;1.50;99.90;;;;;;4918644;28;20035;-84
2023/01/17 08:06:23;;;;;;;2.10;0.87;;;1.40;99.90;;;;;;4910825;28;20431;-83
2023/01/17 08:08:49;;;;;;;0.50;0.40;;;1.50;99.90;;;;;;4916765;28;20410;-86
2023/01/17 08:11:18;;;;;;;6.90;0.67;;;1.50;99.90;;;;;;4904878;29;20044;-87
2023/01/17 08:13:43;;;;;;;2.77;1.07;;;1.50;99.90;;;;;;4924447;29;20055;-86
2023/01/17 08:16:10;;;;;;;2.20;0.90;;;1.40;99.90;;;;;;4923256;28;20339;-85
2023/01/17 08:18:36;;;;;;;4.67;0.83;;;1.40;99.90;;;;;;4922822;28;20122;-87
2023/01/17 08:21:02;;;;;;;2.70;1.67;;;1.40;99.90;;;;;;4939511;28;20194;-84
2023/01/17 08:23:30;;;;;;;16.63;1.47;;;1.40;99.90;;;;;;4926333;28;20086;-87
2023/01/17 08:26:00;;;;;;;3.40;1.20;;;1.40;99.90;;;;;;4925842;29;20791;-85
2023/01/17 08:28:25;;;;;;;1.07;1.00;;;1.30;99.90;;;;;;4912505;28;20772;-87
2023/01/17 08:30:51;;;;;;;1.33;0.57;;;1.40;99.90;;;;;;4894327;29;20124;-84
2023/01/17 08:33:20;;;;;;;4.30;0.80;;;1.40;99.90;;;;;;4926522;28;20040;-87
2023/01/17 08:35:53;;;;;;;1.80;0.80;;;1.40;99.90;;;;;;4894043;29;20052;-87
2023/01/17 08:38:19;;;;;;;0.93;0.57;;;1.40;99.90;;;;;;4975661;28;20051;-86
2023/01/17 08:40:45;;;;;;;0.93;0.80;;;1.50;99.90;;;;;;4908187;29;20048;-87
2023/01/17 08:43:11;;;;;;;1.27;0.63;;;1.50;99.90;;;;;;4926586;29;20050;-83
2023/01/17 08:45:37;;;;;;;6.13;0.83;;;1.60;99.90;;;;;;4924583;29;20051;-87
2023/01/17 08:48:03;;;;;;;1.40;0.73;;;1.60;99.90;;;;;;4992827;28;20059;-86
2023/01/17 08:50:28;;;;;;;2.67;1.83;;;1.70;99.90;;;;;;4892937;28;20050;-84
2023/01/17 08:52:58;;;;;;;1.67;0.50;;;1.70;99.90;;;;;;4908998;29;20411;-87
2023/01/17 08:55:24;;;;;;;4.57;1.20;;;1.70;99.90;;;;;;4907783;29;20067;-86
2023/01/17 08:57:50;;;;;;;3.13;1.50;;;1.80;99.90;;;;;;4908484;29;20486;-85
2023/01/17 09:00:16;;;;;;;1.07;0.47;;;1.80;99.90;;;;;;4939591;28;20267;-86
2023/01/17 09:02:42;;;;;;;2.80;2.20;;;1.80;99.90;;;;;;4910278;29;20054;-86
2023/01/17 09:05:08;;;;;;;0.50;0.50;;;1.90;99.90;;;;;;4944781;29;20440;-87
2023/01/17 09:07:34;;;;;;;0.67;0.27;;;2.00;99.90;;;;;;4944503;29;20120;-85
2023/01/17 09:09:59;;;;;;;1.10;0.93;;;1.90;99.90;;;;;;4925707;29;20065;-85
2023/01/17 09:12:25;;;;;;;1.23;0.70;;;2.10;99.90;;;;;;4944695;29;20528;-86
2023/01/17 09:14:51;;;;;;;2.77;0.60;;;2.10;99.90;;;;;;4944381;29;20057;-87
2023/01/17 09:17:19;;;;;;;3.13;1.00;;;2.10;99.90;;;;;;4908832;28;20453;-87
2023/01/17 09:19:47;;;;;;;0.87;0.57;;;2.20;99.90;;;;;;4940879;29;20131;-84
2023/01/17 09:22:13;;;;;;;1.17;0.50;;;2.20;99.90;;;;;;4927213;29;20156;-87
2023/01/17 09:24:39;;;;;;;1.83;1.47;;;2.20;99.90;;;;;;4943165;29;20039;-87
2023/01/17 09:27:05;;;;;;;1.97;1.33;;;2.30;99.90;;;;;;4940304;29;20070;-87
2023/01/17 09:29:31;;;;;;;1.33;1.23;;;2.40;99.90;;;;;;4926163;28;20071;-83
2023/01/17 09:31:56;;;;;;;2.13;1.97;;;2.30;99.90;;;;;;4925136;29;20537;-87
2023/01/17 09:34:23;;;;;;;2.20;1.17;;;2.40;99.90;;;;;;4924740;28;20048;-82
2023/01/17 09:36:49;;;;;;;1.60;1.13;;;2.40;99.90;;;;;;4925139;28;20403;-87
2023/01/17 09:39:18;;;;;;;2.50;0.87;;;2.40;99.90;;;;;;4907525;29;20079;-85
2023/01/17 09:42:26;;;;;;;1.20;0.97;;;2.50;99.90;;;;;;4924147;28;20047;-86
2023/01/17 09:44:53;;;;;;;2.30;0.87;;;2.50;99.90;;;;;;4909166;28;20086;-86
2023/01/17 09:47:39;;;;;;;3.07;1.10;;;2.50;99.90;;;;;;4926127;28;20047;-83
2023/01/17 09:50:26;;;;;;;0.70;0.70;;;2.50;99.90;;;;;;4925692;29;20051;-84
2023/01/17 09:53:04;;;;;;;2.57;1.87;;;2.50;99.90;;;;;;4924743;28;20087;-87
2023/01/17 09:55:55;;;;;;;0.57;0.50;;;2.50;99.90;;;;;;4907417;28;20166;-86
2023/01/17 09:58:47;;;;;;;1.13;1.10;;;2.50;99.90;;;;;;4925375;28;20083;-83
2023/01/17 10:01:39;;;;;;;1.48;0.90;;;2.50;99.90;;;;;;4908207;29;20040;-85
2023/01/17 10:04:20;;;;;;;1.43;1.30;;;2.50;99.90;;;;;;4925438;28;20047;-86
2023/01/17 10:07:00;;;;;;;8.23;2.00;;;2.50;99.90;;;;;;4907221;28;20040;-85
2023/01/17 10:09:52;;;;;;;1.30;1.20;;;2.50;99.90;;;;;;4906716;29;20082;-86
2023/01/17 10:12:54;;;;;;;2.05;1.00;;;2.50;99.90;;;;;;4908227;28;20143;-84
2023/01/17 10:15:29;;;;;;;6.10;0.87;;;2.50;99.90;;;;;;4887488;28;20114;-86
2023/01/17 10:18:19;;;;;;;1.17;0.83;;;2.50;99.90;;;;;;4907472;28;20513;-86
2023/01/17 10:21:24;;;;;;;3.73;1.40;;;2.40;99.90;;;;;;4924115;28;20533;-86
2023/01/17 10:24:39;;;;;;;2.40;0.90;;;2.50;99.90;;;;;;4924715;28;20047;-85
2023/01/17 10:27:19;;;;;;;1.33;1.00;;;2.50;99.90;;;;;;4952081;28;20119;-84
2023/01/17 10:29:46;;;;;;;1.57;1.47;;;2.50;99.90;;;;;;4989843;28;20495;-86
2023/01/17 10:32:14;;;;;;;1.97;0.90;;;2.50;99.90;;;;;;5024669;28;20068;-85
2023/01/17 10:34:48;;;;;;;9.67;1.20;;;2.50;99.90;;;;;;4976679;28;20051;-85
2023/01/17 10:37:21;;;;;;;2.20;1.40;;;2.60;99.90;;;;;;5006840;28;20053;-85
2023/01/17 10:39:48;;;;;;;1.47;1.00;;;2.50;99.90;;;;;;5023366;28;20502;-85
2023/01/17 10:42:42;;;;;;;2.87;0.90;;;2.60;99.90;;;;;;5023211;28;20037;-86
2023/01/17 10:45:27;;;;;;;0.73;0.60;;;2.60;99.90;;;;;;5024034;28;20049;-85
2023/01/17 10:48:11;;;;;;;2.30;1.87;;;2.60;99.90;;;;;;5023595;28;20045;-85
2023/01/17 10:50:58;;;;;;;0.67;0.67;;;2.60;99.90;;;;;;5023522;28;20072;-86
2023/01/17 10:53:39;;;;;;;1.50;1.23;;;2.60;99.90;;;;;;5006062;28;20117;-85
2023/01/17 10:56:11;;;;;;;0.70;0.70;;;2.70;99.90;;;;;;5005861;28;20071;-85
2023/01/17 10:58:37;;;;;;;0.55;0.52;;;2.70;99.90;;;;;;5006160;28;20033;-87
2023/01/17 11:01:15;;;;;;;0.50;0.50;;;2.70;99.90;;;;;;5023906;28;20088;-86
2023/01/17 11:03:43;;;;;;;4.00;0.80;;;2.80;99.90;;;;;;5023137;28;20076;-85
2023/01/17 11:06:22;;;;;;;0.90;0.80;;;2.80;99.90;;;;;;4989598;28;20041;-86
2023/01/17 11:08:56;;;;;;;8.03;1.70;;;2.80;99.90;;;;;;5023507;28;20128;-86
2023/01/17 11:11:33;;;;;;;0.70;0.70;;;2.90;99.90;;;;;;5005074;28;20069;-84
2023/01/17 11:14:03;;;;;;;4.83;1.60;;;2.90;99.90;;;;;;5005578;28;20129;-86
2023/01/17 11:16:30;;;;;;;0.40;0.40;;;2.90;99.90;;;;;;4989801;28;20700;-86
2023/01/17 11:19:18;;;;;;;1.30;1.15;;;3.00;99.90;;;;;;5023405;28;20442;-86
2023/01/17 11:21:53;;;;;;;1.38;0.52;;;3.00;99.90;;;;;;5005540;28;20073;-85
2023/01/17 11:24:40;;;;;;;0.73;0.40;;;3.10;99.90;;;;;;5004587;28;20498;-84
2023/01/17 11:27:23;;;;;;;1.87;0.60;;;3.10;99.90;;;;;;4928624;28;20085;-86
2023/01/17 11:30:14;;;;;;;1.23;0.60;;;3.10;99.90;;;;;;4925719;29;20051;-85
2023/01/17 11:33:07;;;;;;;2.27;1.47;;;3.20;99.90;;;;;;4942724;29;20640;-86
2023/01/17 11:35:35;;;;;;;0.95;0.55;;;3.20;99.90;;;;;;4910621;29;20043;-85
2023/01/17 11:38:01;;;;;;;0.93;0.60;;;3.20;99.90;;;;;;4925690;29;20127;-84
2023/01/17 11:40:36;;;;;;;0.95;0.68;;;3.20;99.90;;;;;;4942351;29;20050;-87
2023/01/17 11:43:23;;;;;;;5.38;1.35;;;3.30;99.90;;;;;;4943005;29;20043;-85
2023/01/17 11:46:19;;;;;;;2.83;1.00;;;3.30;99.90;;;;;;4909876;29;20079;-87
2023/01/17 11:48:58;;;;;;;11.83;1.60;;;3.40;99.90;;;;;;4942528;29;20466;-86
2023/01/17 11:51:27;;;;;;;1.75;0.60;;;3.40;99.90;;;;;;4942696;29;20436;-86
2023/01/17 11:54:02;;;;;;;1.52;0.80;;;3.40;99.90;;;;;;4924620;29;20440;-86
2023/01/17 11:56:34;;;;;;;0.47;0.40;;;3.40;99.90;;;;;;4942416;29;20051;-86
2023/01/17 11:59:33;;;;;;;2.15;0.93;;;3.50;99.90;;;;;;4923576;28;20085;-83
2023/01/17 12:02:00;;;;;;;0.40;0.40;;;3.50;99.90;;;;;;4942003;28;20062;-83
2023/01/17 12:04:41;;;;;;;0.85;0.73;;;3.50;99.90;;;;;;4937830;29;20132;-82
2023/01/17 12:07:20;;;;;;;0.60;0.60;;;3.60;99.90;;;;;;4939727;29;20055;-83
2023/01/17 12:09:58;;;;;;;2.70;1.00;;;3.50;99.90;;;;;;4939371;29;20046;-83
2023/01/17 12:15:46;;;;;;;4.38;0.55;;;3.60;99.90;;;;;;4942322;29;20509;-83
2023/01/17 12:18:33;;;;;;;4.15;0.70;;;3.60;99.90;;;;;;4924539;29;20118;-83
2023/01/17 12:21:33;;;;;;;2.08;1.00;;;3.60;99.90;;;;;;4925186;28;20054;-83
2023/01/17 12:24:22;;;;;;;5.65;1.58;;;3.60;99.90;;;;;;4940915;28;20485;-82
2023/01/17 12:27:07;;;;;;;0.73;0.70;;;3.60;99.90;;;;;;4924724;28;20052;-80
2023/01/17 12:29:46;;;;;;;1.20;0.70;;;3.60;99.90;;;;;;4942214;29;20086;-85
2023/01/17 12:32:36;;;;;;;0.60;0.50;;;3.60;99.90;;;;;;4942389;29;20101;-83
2023/01/17 12:35:15;;;;;;;2.35;0.98;;;3.60;99.90;;;;;;4926790;28;20097;-81
2023/01/17 12:37:44;;;;;;;1.65;0.82;;;3.60;99.90;;;;;;4940739;29;20043;-81
2023/01/17 12:40:24;;;;;;;5.60;1.83;;;3.70;99.90;;;;;;4941199;29;20145;-83
2023/01/17 12:43:18;;;;;;;0.90;0.73;;;3.70;99.90;;;;;;4924462;28;20225;-81
2023/01/17 12:45:48;;;;;;;0.65;0.50;;;3.70;99.90;;;;;;4941388;29;20050;-81
2023/01/17 12:48:22;;;;;;;4.82;0.70;;;3.80;99.90;;;;;;4941779;28;20101;-82
2023/01/17 12:50:50;;;;;;;0.90;0.90;;;3.80;99.90;;;;;;4924136;28;20065;-80
2023/01/17 12:53:45;;;;;;;2.03;0.75;;;3.80;99.90;;;;;;4941952;29;20052;-82
2023/01/17 12:56:15;;;;;;;0.50;0.50;;;3.80;99.90;;;;;;4941745;29;20047;-81
2023/01/17 12:58:49;;;;;;;0.50;0.45;;;3.80;99.90;;;;;;4924274;28;20093;-81
2023/01/17 13:01:28;;;;;;;0.52;0.52;;;3.80;99.90;;;;;;4923735;29;20138;-81
2023/01/17 13:04:05;;;;;;;0.70;0.50;;;3.90;99.90;;;;;;4941459;29;20401;-82
2023/01/17 13:06:58;;;;;;;9.25;1.20;;;3.90;99.90;;;;;;4940258;29;20252;-82
2023/01/17 13:09:26;;;;;;;8.52;4.43;;;3.90;99.90;;;;;;4942152;29;20043;-81
2023/01/17 13:12:14;;;;;;;0.88;0.52;;;3.90;99.90;;;;;;4944913;29;20093;-82
2023/01/17 13:14:39;;;;;;;4.40;1.20;;;3.80;99.90;;;;;;4944714;29;20039;-82
2023/01/17 13:17:25;;;;;;;0.77;0.63;;;3.80;99.90;;;;;;4945141;28;20046;-81
2023/01/17 13:20:00;;;;;;;7.07;2.58;;;3.80;99.90;;;;;;4944671;29;20039;-81
2023/01/17 13:22:26;;;;;;;0.68;0.68;;;3.80;99.90;;;;;;4944594;28;20471;-82
2023/01/17 13:25:07;;;;;;;0.40;0.40;;;3.80;99.90;;;;;;4943641;29;20420;-81
2023/01/17 13:27:57;;;;;;;0.88;0.68;;;3.80;99.90;;;;;;4933196;29;20039;-80
2023/01/17 13:30:28;;;;;;;0.55;0.50;;;3.80;99.90;;;;;;4942575;28;20047;-81
2023/01/17 13:33:05;;;;;;;0.50;0.50;;;3.80;99.90;;;;;;4927053;29;20265;-81
2023/01/17 13:35:50;;;;;;;2.03;0.88;;;3.80;99.90;;;;;;4929373;29;20054;-81
2023/01/17 13:38:40;;;;;;;1.25;0.60;;;3.80;99.90;;;;;;5003410;28;20040;-82
2023/01/17 13:41:36;;;;;;;1.05;0.95;;;3.80;99.90;;;;;;4994292;28;20048;-80
2023/01/17 13:44:21;;;;;;;0.60;0.40;;;3.80;99.90;;;;;;4944262;28;20055;-83
2023/01/17 13:47:11;;;;;;;1.02;0.50;;;3.70;99.90;;;;;;4914728;28;20051;-82
2023/01/17 13:49:40;;;;;;;1.10;0.40;;;3.70;99.90;;;;;;4939783;28;20069;-79
2023/01/17 13:52:09;;;;;;;0.20;0.20;;;3.60;99.90;;;;;;4940065;28;20613;-80
2023/01/17 13:54:49;;;;;;;4.05;1.45;;;3.60;99.90;;;;;;4926669;28;20093;-80
2023/01/17 13:57:42;;;;;;;1.48;0.68;;;3.50;99.90;;;;;;4943497;29;20039;-82
2023/01/17 14:00:22;;;;;;;2.75;0.60;;;3.50;99.90;;;;;;4956440;28;20065;-82
2023/01/17 14:02:49;;;;;;;1.48;0.65;;;3.50;99.90;;;;;;4931560;29;20506;-81
2023/01/17 14:05:30;;;;;;;1.70;1.02;;;3.50;99.90;;;;;;4922453;29;20043;-81
2023/01/17 14:08:21;;;;;;;;;;;;;;;;;;;;;
2023/01/17 14:11:06;;;;;;;2.03;0.63;;;3.50;99.90;;;;;;4935822;28;20121;-87
2023/01/17 14:13:39;;;;;;;0.40;0.32;;;3.50;99.90;;;;;;4988552;28;20051;-88
2023/01/17 14:16:30;;;;;;;1.83;1.05;;;3.50;99.90;;;;;;4901981;29;20043;-85
2023/01/17 14:19:50;;;;;;;1.33;0.57;;;3.50;99.90;;;;;;4897113;29;20557;-88
2023/01/17 14:22:28;;;;;;;0.73;0.57;;;3.60;99.90;;;;;;4917733;29;20069;-87
2023/01/17 14:25:19;;;;;;;1.15;0.70;;;3.60;99.90;;;;;;4933741;29;20050;-87
2023/01/17 14:28:00;;;;;;;1.65;0.73;;;3.50;99.90;;;;;;4932637;28;20046;-87
2023/01/17 14:30:32;;;;;;;0.55;0.43;;;3.50;99.90;;;;;;4926985;28;20055;-88
2023/01/17 14:32:59;;;;;;;;;;;3.50;99.90;;;;;;4928533;28;20083;-85
2023/01/17 14:35:33;;;;;;;0.55;0.52;;;3.40;99.90;;;;;;4950883;28;20217;-85
2023/01/17 14:38:04;;;;;;;1.00;0.90;;;3.40;99.90;;;;;;4919585;28;20052;-85
2023/01/17 14:40:36;;;;;;;0.60;0.60;;;3.40;99.90;;;;;;4927307;28;20510;-85
2023/01/17 14:44:04;;;;;;;0.57;0.40;;;3.40;99.90;;;;;;4938980;28;20109;-86
2023/01/17 14:46:27;;;;;;;2.17;1.95;;;3.50;99.90;;;;;;4933618;28;21345;-82
2023/01/17 14:49:01;;;;;;;0.68;0.63;;;3.40;99.90;;;;;;4925892;29;20047;-83
2023/01/17 14:51:27;;;;;;;2.60;1.20;;;3.40;99.90;;;;;;5019715;28;20519;-84
2023/01/17 14:54:05;;;;;;;3.20;1.15;;;3.40;99.90;;;;;;5023279;28;20348;-83